sensor_id;sensor_type;location;lat;lon;timestamp;temperature;humidity
13856;DHT22;6998;53.608;9.958;2023-07-24T00:00:24;18.20;99.90
13856;DHT22;6998;53.608;9.958;2023-07-24T00:02:52;18.30;99.90
13856;DHT22;6998;53.608;9.958;2023-07-24T00:05:19;18.30;99.90
13856;DHT22;6998;53.608;9.958;2023-07-24T00:07:46;18.20;99.90
13856;DHT22;6998;53.608;9.958;2023-07-24T00:10:12;18.20;99.90
13856;DHT22;6998;53.608;9.958;2023-07-24T00:12:39;18.20;99.90
13856;DHT22;6998;53.608;9.958;2023-07-24T00:15:06;18.20;99.90
13856;DHT22;6998;53.608;9.958;2023-07-24T00:17:33;18.20;99.90
13856;DHT22;6998;53.608;9.958;2023-07-24T00:20:02;18.20;99.90
13856;DHT22;6998;53.608;9.958;2023-07-24T00:22:28;18.20;99.90
13856;DHT22;6998;53.608;9.958;2023-07-24T00:24:55;18.20;99.90
13856;DHT22;6998;53.608;9.958;2023-07-24T00:27:22;18.20;99.90
13856;DHT22;6998;53.608;9.958;2023-07-24T00:29:48;18.30;99.90
13856;DHT22;6998;53.608;9.958;2023-07-24T00:32:15;18.30;99.90
13856;DHT22;6998;53.608;9.958;2023-07-24T00:34:42;18.20;99.90
13856;DHT22;6998;53.608;9.958;2023-07-24T00:37:10;18.20;99.90
13856;DHT22;6998;53.608;9.958;2023-07-24T00:39:36;18.10;99.90
13856;DHT22;6998;53.608;9.958;2023-07-24T00:42:06;18.10;99.90
13856;DHT22;6998;53.608;9.958;2023-07-24T00:44:33;18.00;99.90
13856;DHT22;6998;53.608;9.958;2023-07-24T00:47:00;18.00;99.90
13856;DHT22;6998;53.608;9.958;2023-07-24T00:49:27;18.00;99.90
13856;DHT22;6998;53.608;9.958;2023-07-24T00:51:53;17.90;99.90
13856;DHT22;6998;53.608;9.958;2023-07-24T00:54:22;17.90;99.90
13856;DHT22;6998;53.608;9.958;2023-07-24T00:56:50;18.00;99.90
13856;DHT22;6998;53.608;9.958;2023-07-24T00:59:16;18.00;99.90
13856;DHT22;6998;53.608;9.958;2023-07-24T01:01:44;18.00;99.90
13856;DHT22;6998;53.608;9.958;2023-07-24T01:04:11;18.10;99.90
13856;DHT22;6998;53.608;9.958;2023-07-24T01:06:37;18.00;99.90
13856;DHT22;6998;53.608;9.958;2023-07-24T01:09:04;18.10;99.90
13856;DHT22;6998;53.608;9.958;2023-07-24T01:11:37;18.10;99.90
13856;DHT22;6998;53.608;9.958;2023-07-24T01:14:11;18.20;99.90
13856;DHT22;6998;53.608;9.958;2023-07-24T01:16:41;18.20;99.90
13856;DHT22;6998;53.608;9.958;2023-07-24T01:19:12;18.30;99.90
13856;DHT22;6998;53.608;9.958;2023-07-24T01:21:52;18.30;99.90
13856;DHT22;6998;53.608;9.958;2023-07-24T01:24:28;18.30;99.90
13856;DHT22;6998;53.608;9.958;2023-07-24T01:26:58;18.30;99.90
13856;DHT22;6998;53.608;9.958;2023-07-24T01:29:24;18.30;99.90
13856;DHT22;6998;53.608;9.958;2023-07-24T01:31:51;18.40;99.90
13856;DHT22;6998;53.608;9.958;2023-07-24T01:34:18;18.40;99.90
13856;DHT22;6998;53.608;9.958;2023-07-24T01:36:45;18.50;99.90
13856;DHT22;6998;53.608;9.958;2023-07-24T01:39:11;18.50;99.90
13856;DHT22;6998;53.608;9.958;2023-07-24T01:41:39;18.50;99.90
13856;DHT22;6998;53.608;9.958;2023-07-24T01:44:07;18.30;99.90
13856;DHT22;6998;53.608;9.958;2023-07-24T01:46:33;18.20;99.90
13856;DHT22;6998;53.608;9.958;2023-07-24T01:49:00;18.20;99.90
13856;DHT22;6998;53.608;9.958;2023-07-24T01:51:27;18.30;99.90
13856;DHT22;6998;53.608;9.958;2023-07-24T01:53:54;18.30;99.90
13856;DHT22;6998;53.608;9.958;2023-07-24T01:56:20;18.20;99.90
13856;DHT22;6998;53.608;9.958;2023-07-24T01:58:47;18.20;99.90
13856;DHT22;6998;53.608;9.958;2023-07-24T02:01:15;18.20;99.90
13856;DHT22;6998;53.608;9.958;2023-07-24T02:03:42;18.20;99.90
13856;DHT22;6998;53.608;9.958;2023-07-24T02:06:08;18.10;99.90
13856;DHT22;6998;53.608;9.958;2023-07-24T02:08:35;18.10;99.90
13856;DHT22;6998;53.608;9.958;2023-07-24T02:11:02;18.10;99.90
13856;DHT22;6998;53.608;9.958;2023-07-24T02:13:28;18.20;99.90
13856;DHT22;6998;53.608;9.958;2023-07-24T02:15:55;18.10;99.90
13856;DHT22;6998;53.608;9.958;2023-07-24T02:18:23;18.20;99.90
13856;DHT22;6998;53.608;9.958;2023-07-24T02:20:50;18.20;99.90
13856;DHT22;6998;53.608;9.958;2023-07-24T02:23:17;18.20;99.90
13856;DHT22;6998;53.608;9.958;2023-07-24T02:25:44;18.20;99.90
13856;DHT22;6998;53.608;9.958;2023-07-24T02:28:10;18.20;99.90
13856;DHT22;6998;53.608;9.958;2023-07-24T02:30:38;18.20;99.90
13856;DHT22;6998;53.608;9.958;2023-07-24T02:33:05;18.10;99.90
13856;DHT22;6998;53.608;9.958;2023-07-24T02:35:38;18.10;99.90
13856;DHT22;6998;53.608;9.958;2023-07-24T02:38:05;18.10;99.90
13856;DHT22;6998;53.608;9.958;2023-07-24T02:40:31;18.10;99.90
13856;DHT22;6998;53.608;9.958;2023-07-24T02:42:58;18.00;99.90
13856;DHT22;6998;53.608;9.958;2023-07-24T02:45:25;18.00;99.90
13856;DHT22;6998;53.608;9.958;2023-07-24T02:47:52;18.00;99.90
13856;DHT22;6998;53.608;9.958;2023-07-24T02:50:18;17.90;99.90
13856;DHT22;6998;53.608;9.958;2023-07-24T02:52:46;17.90;99.90
13856;DHT22;6998;53.608;9.958;2023-07-24T02:55:13;17.80;99.90
13856;DHT22;6998;53.608;9.958;2023-07-24T02:57:40;17.80;99.90
13856;DHT22;6998;53.608;9.958;2023-07-24T03:00:07;17.80;99.90
13856;DHT22;6998;53.608;9.958;2023-07-24T03:02:34;17.80;99.90
13856;DHT22;6998;53.608;9.958;2023-07-24T03:05:01;17.80;99.90
13856;DHT22;6998;53.608;9.958;2023-07-24T03:07:29;17.90;99.90
13856;DHT22;6998;53.608;9.958;2023-07-24T03:09:57;17.90;99.90
13856;DHT22;6998;53.608;9.958;2023-07-24T03:12:23;17.90;99.90
13856;DHT22;6998;53.608;9.958;2023-07-24T03:14:50;17.90;99.90
13856;DHT22;6998;53.608;9.958;2023-07-24T03:17:17;18.10;99.90
13856;DHT22;6998;53.608;9.958;2023-07-24T03:19:44;18.10;99.90
13856;DHT22;6998;53.608;9.958;2023-07-24T03:22:10;18.10;99.90
13856;DHT22;6998;53.608;9.958;2023-07-24T03:24:37;18.10;99.90
13856;DHT22;6998;53.608;9.958;2023-07-24T03:27:05;18.10;99.90
13856;DHT22;6998;53.608;9.958;2023-07-24T03:29:32;18.10;99.90
13856;DHT22;6998;53.608;9.958;2023-07-24T03:31:59;18.00;99.90
13856;DHT22;6998;53.608;9.958;2023-07-24T03:34:25;18.00;99.90
13856;DHT22;6998;53.608;9.958;2023-07-24T03:36:52;18.10;99.90
13856;DHT22;6998;53.608;9.958;2023-07-24T03:39:19;18.10;99.90
13856;DHT22;6998;53.608;9.958;2023-07-24T03:41:45;18.10;99.90
13856;DHT22;6998;53.608;9.958;2023-07-24T03:44:13;18.10;99.90
13856;DHT22;6998;53.608;9.958;2023-07-24T03:46:40;18.10;99.90
13856;DHT22;6998;53.608;9.958;2023-07-24T03:49:07;18.20;99.90
13856;DHT22;6998;53.608;9.958;2023-07-24T03:51:33;18.20;99.90
13856;DHT22;6998;53.608;9.958;2023-07-24T03:54:00;18.20;99.90
13856;DHT22;6998;53.608;9.958;2023-07-24T03:56:27;18.20;99.90
13856;DHT22;6998;53.608;9.958;2023-07-24T03:58:53;18.10;99.90
13856;DHT22;6998;53.608;9.958;2023-07-24T04:01:21;18.10;99.90
13856;DHT22;6998;53.608;9.958;2023-07-24T04:03:48;18.00;99.90
13856;DHT22;6998;53.608;9.958;2023-07-24T04:06:15;18.00;99.90
13856;DHT22;6998;53.608;9.958;2023-07-24T04:08:41;18.00;99.90
13856;DHT22;6998;53.608;9.958;2023-07-24T04:11:08;18.00;99.90
13856;DHT22;6998;53.608;9.958;2023-07-24T04:13:35;18.00;99.90
13856;DHT22;6998;53.608;9.958;2023-07-24T04:16:01;18.00;99.90
13856;DHT22;6998;53.608;9.958;2023-07-24T04:18:29;18.00;99.90
13856;DHT22;6998;53.608;9.958;2023-07-24T04:20:56;18.00;99.90
13856;DHT22;6998;53.608;9.958;2023-07-24T04:23:23;18.00;99.90
13856;DHT22;6998;53.608;9.958;2023-07-24T04:25:50;18.10;99.90
13856;DHT22;6998;53.608;9.958;2023-07-24T04:28:16;18.10;99.90
13856;DHT22;6998;53.608;9.958;2023-07-24T04:30:43;18.20;99.90
13856;DHT22;6998;53.608;9.958;2023-07-24T04:33:10;18.20;99.90
13856;DHT22;6998;53.608;9.958;2023-07-24T04:35:38;18.30;99.90
13856;DHT22;6998;53.608;9.958;2023-07-24T04:38:04;18.40;99.90
13856;DHT22;6998;53.608;9.958;2023-07-24T04:40:31;18.40;99.90
13856;DHT22;6998;53.608;9.958;2023-07-24T04:42:58;18.50;99.90
13856;DHT22;6998;53.608;9.958;2023-07-24T04:45:25;18.50;99.90
13856;DHT22;6998;53.608;9.958;2023-07-24T04:47:51;18.40;99.90
13856;DHT22;6998;53.608;9.958;2023-07-24T04:50:18;18.40;99.90
13856;DHT22;6998;53.608;9.958;2023-07-24T04:52:46;18.40;99.90
13856;DHT22;6998;53.608;9.958;2023-07-24T04:55:13;18.50;99.90
13856;DHT22;6998;53.608;9.958;2023-07-24T04:57:40;18.50;99.90
13856;DHT22;6998;53.608;9.958;2023-07-24T05:00:07;18.60;99.90
13856;DHT22;6998;53.608;9.958;2023-07-24T05:02:34;18.60;99.90
13856;DHT22;6998;53.608;9.958;2023-07-24T05:05:01;18.60;99.90
13856;DHT22;6998;53.608;9.958;2023-07-24T05:07:28;18.60;99.90
13856;DHT22;6998;53.608;9.958;2023-07-24T05:09:56;18.60;99.90
13856;DHT22;6998;53.608;9.958;2023-07-24T05:12:23;18.70;99.90
13856;DHT22;6998;53.608;9.958;2023-07-24T05:14:49;18.70;99.90
13856;DHT22;6998;53.608;9.958;2023-07-24T05:17:16;18.70;99.90
13856;DHT22;6998;53.608;9.958;2023-07-24T05:19:43;18.80;99.90
13856;DHT22;6998;53.608;9.958;2023-07-24T05:22:10;18.90;99.90
13856;DHT22;6998;53.608;9.958;2023-07-24T05:24:36;19.00;99.90
13856;DHT22;6998;53.608;9.958;2023-07-24T05:27:05;19.20;99.90
13856;DHT22;6998;53.608;9.958;2023-07-24T05:29:32;19.30;99.90
13856;DHT22;6998;53.608;9.958;2023-07-24T05:31:59;19.40;99.90
13856;DHT22;6998;53.608;9.958;2023-07-24T05:34:26;19.50;99.90
13856;DHT22;6998;53.608;9.958;2023-07-24T05:36:53;19.60;99.90
13856;DHT22;6998;53.608;9.958;2023-07-24T05:39:19;19.70;99.90
13856;DHT22;6998;53.608;9.958;2023-07-24T05:41:47;19.70;99.90
13856;DHT22;6998;53.608;9.958;2023-07-24T05:44:15;19.70;99.90
13856;DHT22;6998;53.608;9.958;2023-07-24T05:46:42;19.50;99.90
13856;DHT22;6998;53.608;9.958;2023-07-24T05:49:09;19.50;99.90
13856;DHT22;6998;53.608;9.958;2023-07-24T05:51:35;19.50;99.90
13856;DHT22;6998;53.608;9.958;2023-07-24T05:54:02;19.50;99.90
13856;DHT22;6998;53.608;9.958;2023-07-24T05:56:29;19.50;99.90
13856;DHT22;6998;53.608;9.958;2023-07-24T05:58:55;19.50;99.90
13856;DHT22;6998;53.608;9.958;2023-07-24T06:01:23;19.60;99.90
13856;DHT22;6998;53.608;9.958;2023-07-24T06:03:50;19.60;99.90
13856;DHT22;6998;53.608;9.958;2023-07-24T06:06:17;19.70;99.90
13856;DHT22;6998;53.608;9.958;2023-07-24T06:08:44;19.80;99.90
13856;DHT22;6998;53.608;9.958;2023-07-24T06:11:12;19.80;99.90
13856;DHT22;6998;53.608;9.958;2023-07-24T06:13:39;19.90;99.90
13856;DHT22;6998;53.608;9.958;2023-07-24T06:16:06;20.00;99.90
13856;DHT22;6998;53.608;9.958;2023-07-24T06:18:34;20.00;99.90
13856;DHT22;6998;53.608;9.958;2023-07-24T06:21:00;20.00;99.90
13856;DHT22;6998;53.608;9.958;2023-07-24T06:23:27;20.10;99.90
13856;DHT22;6998;53.608;9.958;2023-07-24T06:25:54;20.20;99.90
13856;DHT22;6998;53.608;9.958;2023-07-24T06:28:21;20.10;99.90
13856;DHT22;6998;53.608;9.958;2023-07-24T06:30:47;20.10;99.90
13856;DHT22;6998;53.608;9.958;2023-07-24T06:33:14;20.00;99.90
13856;DHT22;6998;53.608;9.958;2023-07-24T06:35:42;20.20;99.90
13856;DHT22;6998;53.608;9.958;2023-07-24T06:38:09;20.20;99.90
13856;DHT22;6998;53.608;9.958;2023-07-24T06:40:35;20.30;99.90
13856;DHT22;6998;53.608;9.958;2023-07-24T06:43:02;20.30;99.90
13856;DHT22;6998;53.608;9.958;2023-07-24T06:45:29;20.30;99.90
13856;DHT22;6998;53.608;9.958;2023-07-24T06:47:55;20.30;99.90
13856;DHT22;6998;53.608;9.958;2023-07-24T06:50:22;20.30;99.90
13856;DHT22;6998;53.608;9.958;2023-07-24T06:52:50;20.10;99.90
13856;DHT22;6998;53.608;9.958;2023-07-24T06:55:19;20.10;99.90
13856;DHT22;6998;53.608;9.958;2023-07-24T06:57:46;20.10;99.90
13856;DHT22;6998;53.608;9.958;2023-07-24T07:00:13;20.20;99.90
13856;DHT22;6998;53.608;9.958;2023-07-24T07:02:40;20.30;99.90
13856;DHT22;6998;53.608;9.958;2023-07-24T07:05:07;20.50;99.90
13856;DHT22;6998;53.608;9.958;2023-07-24T07:07:33;20.50;99.90
13856;DHT22;6998;53.608;9.958;2023-07-24T07:10:02;20.60;99.90
13856;DHT22;6998;53.608;9.958;2023-07-24T07:12:28;20.60;99.90
13856;DHT22;6998;53.608;9.958;2023-07-24T07:14:55;20.50;99.90
13856;DHT22;6998;53.608;9.958;2023-07-24T07:17:22;20.40;99.90
13856;DHT22;6998;53.608;9.958;2023-07-24T07:19:48;20.40;99.90
13856;DHT22;6998;53.608;9.958;2023-07-24T07:22:15;20.30;99.90
13856;DHT22;6998;53.608;9.958;2023-07-24T07:24:42;20.20;99.90
13856;DHT22;6998;53.608;9.958;2023-07-24T07:27:10;20.10;99.90
13856;DHT22;6998;53.608;9.958;2023-07-24T07:29:37;20.20;99.90
13856;DHT22;6998;53.608;9.958;2023-07-24T07:32:05;20.20;99.90
13856;DHT22;6998;53.608;9.958;2023-07-24T07:34:31;20.30;99.90
13856;DHT22;6998;53.608;9.958;2023-07-24T07:37:00;20.30;99.90
13856;DHT22;6998;53.608;9.958;2023-07-24T07:39:26;20.40;99.90
13856;DHT22;6998;53.608;9.958;2023-07-24T07:41:53;20.50;99.90
13856;DHT22;6998;53.608;9.958;2023-07-24T07:44:21;20.70;99.90
13856;DHT22;6998;53.608;9.958;2023-07-24T07:46:48;21.00;99.90
13856;DHT22;6998;53.608;9.958;2023-07-24T07:49:15;21.00;99.90
13856;DHT22;6998;53.608;9.958;2023-07-24T07:51:41;21.10;99.90
13856;DHT22;6998;53.608;9.958;2023-07-24T07:54:08;21.30;99.90
13856;DHT22;6998;53.608;9.958;2023-07-24T07:56:35;21.30;99.90
13856;DHT22;6998;53.608;9.958;2023-07-24T07:59:01;21.40;99.90
13856;DHT22;6998;53.608;9.958;2023-07-24T08:01:30;21.50;99.90
13856;DHT22;6998;53.608;9.958;2023-07-24T08:03:56;21.50;99.90
13856;DHT22;6998;53.608;9.958;2023-07-24T08:06:23;21.40;99.90
13856;DHT22;6998;53.608;9.958;2023-07-24T08:08:50;21.40;99.90
13856;DHT22;6998;53.608;9.958;2023-07-24T08:11:16;21.40;99.90
13856;DHT22;6998;53.608;9.958;2023-07-24T08:13:43;21.50;99.90
13856;DHT22;6998;53.608;9.958;2023-07-24T08:16:13;21.30;99.90
13856;DHT22;6998;53.608;9.958;2023-07-24T08:18:45;21.20;99.90
13856;DHT22;6998;53.608;9.958;2023-07-24T08:21:12;21.20;99.90
13856;DHT22;6998;53.608;9.958;2023-07-24T08:23:39;21.20;99.90
13856;DHT22;6998;53.608;9.958;2023-07-24T08:26:06;21.20;99.90
13856;DHT22;6998;53.608;9.958;2023-07-24T08:28:33;21.40;99.90
13856;DHT22;6998;53.608;9.958;2023-07-24T08:31:01;21.40;99.90
13856;DHT22;6998;53.608;9.958;2023-07-24T08:33:28;21.50;99.90
13856;DHT22;6998;53.608;9.958;2023-07-24T08:36:01;21.60;99.90
13856;DHT22;6998;53.608;9.958;2023-07-24T08:38:28;21.70;99.90
13856;DHT22;6998;53.608;9.958;2023-07-24T08:41:06;21.60;99.90
13856;DHT22;6998;53.608;9.958;2023-07-24T08:43:35;21.60;99.90
13856;DHT22;6998;53.608;9.958;2023-07-24T08:46:03;21.50;99.90
13856;DHT22;6998;53.608;9.958;2023-07-24T08:48:31;21.60;99.90
13856;DHT22;6998;53.608;9.958;2023-07-24T08:51:02;21.50;99.90
13856;DHT22;6998;53.608;9.958;2023-07-24T08:53:30;21.60;99.90
13856;DHT22;6998;53.608;9.958;2023-07-24T08:55:57;21.70;99.90
13856;DHT22;6998;53.608;9.958;2023-07-24T08:58:25;21.70;99.90
13856;DHT22;6998;53.608;9.958;2023-07-24T09:00:52;21.60;99.90
13856;DHT22;6998;53.608;9.958;2023-07-24T09:03:19;21.60;99.90
13856;DHT22;6998;53.608;9.958;2023-07-24T09:05:47;21.70;99.90
13856;DHT22;6998;53.608;9.958;2023-07-24T09:08:15;21.80;99.90
13856;DHT22;6998;53.608;9.958;2023-07-24T09:10:42;22.20;99.90
13856;DHT22;6998;53.608;9.958;2023-07-24T09:13:12;22.40;99.90
13856;DHT22;6998;53.608;9.958;2023-07-24T09:15:42;22.40;99.90
13856;DHT22;6998;53.608;9.958;2023-07-24T09:18:09;22.50;99.90
13856;DHT22;6998;53.608;9.958;2023-07-24T09:20:40;22.60;99.90
13856;DHT22;6998;53.608;9.958;2023-07-24T09:23:07;22.50;99.90
13856;DHT22;6998;53.608;9.958;2023-07-24T09:25:37;22.50;99.90
13856;DHT22;6998;53.608;9.958;2023-07-24T09:28:11;22.50;99.90
13856;DHT22;6998;53.608;9.958;2023-07-24T09:30:38;22.60;99.90
13856;DHT22;6998;53.608;9.958;2023-07-24T09:33:04;22.80;99.90
13856;DHT22;6998;53.608;9.958;2023-07-24T09:35:31;22.90;99.90
13856;DHT22;6998;53.608;9.958;2023-07-24T09:38:03;23.00;99.90
13856;DHT22;6998;53.608;9.958;2023-07-24T09:40:39;22.90;99.90
13856;DHT22;6998;53.608;9.958;2023-07-24T09:43:17;23.00;99.90
13856;DHT22;6998;53.608;9.958;2023-07-24T09:45:44;23.10;99.90
13856;DHT22;6998;53.608;9.958;2023-07-24T09:48:12;22.80;99.90
13856;DHT22;6998;53.608;9.958;2023-07-24T09:50:40;22.80;99.90
13856;DHT22;6998;53.608;9.958;2023-07-24T09:53:11;22.90;99.90
13856;DHT22;6998;53.608;9.958;2023-07-24T09:55:45;23.00;99.90
13856;DHT22;6998;53.608;9.958;2023-07-24T09:58:13;23.20;99.90
13856;DHT22;6998;53.608;9.958;2023-07-24T10:00:41;23.30;99.90
13856;DHT22;6998;53.608;9.958;2023-07-24T10:03:08;23.40;99.90
13856;DHT22;6998;53.608;9.958;2023-07-24T10:05:36;23.40;99.90
13856;DHT22;6998;53.608;9.958;2023-07-24T10:08:03;23.60;99.90
13856;DHT22;6998;53.608;9.958;2023-07-24T10:10:31;23.70;99.90
13856;DHT22;6998;53.608;9.958;2023-07-24T10:12:59;23.80;99.90
13856;DHT22;6998;53.608;9.958;2023-07-24T10:15:26;24.00;99.90
13856;DHT22;6998;53.608;9.958;2023-07-24T10:18:01;23.90;99.90
13856;DHT22;6998;53.608;9.958;2023-07-24T10:20:33;23.80;99.90
13856;DHT22;6998;53.608;9.958;2023-07-24T10:23:01;23.70;99.90
13856;DHT22;6998;53.608;9.958;2023-07-24T10:25:31;23.50;99.90
13856;DHT22;6998;53.608;9.958;2023-07-24T10:28:03;23.60;99.90
13856;DHT22;6998;53.608;9.958;2023-07-24T10:30:33;23.50;99.90
13856;DHT22;6998;53.608;9.958;2023-07-24T10:33:04;23.60;99.90
13856;DHT22;6998;53.608;9.958;2023-07-24T10:35:37;23.60;99.90
13856;DHT22;6998;53.608;9.958;2023-07-24T10:38:04;23.70;99.90
13856;DHT22;6998;53.608;9.958;2023-07-24T10:40:32;23.90;99.90
13856;DHT22;6998;53.608;9.958;2023-07-24T10:42:59;24.30;99.90
13856;DHT22;6998;53.608;9.958;2023-07-24T10:45:38;24.40;99.90
13856;DHT22;6998;53.608;9.958;2023-07-24T10:48:05;24.10;99.90
13856;DHT22;6998;53.608;9.958;2023-07-24T10:50:36;24.00;99.90
13856;DHT22;6998;53.608;9.958;2023-07-24T10:53:03;24.00;99.90
13856;DHT22;6998;53.608;9.958;2023-07-24T10:55:30;23.90;99.90
13856;DHT22;6998;53.608;9.958;2023-07-24T10:57:56;23.80;99.90
13856;DHT22;6998;53.608;9.958;2023-07-24T11:00:23;23.80;99.90
13856;DHT22;6998;53.608;9.958;2023-07-24T11:02:52;23.80;99.90
13856;DHT22;6998;53.608;9.958;2023-07-24T11:05:20;23.80;99.90
13856;DHT22;6998;53.608;9.958;2023-07-24T11:07:47;24.10;99.90
13856;DHT22;6998;53.608;9.958;2023-07-24T11:10:17;24.30;99.90
13856;DHT22;6998;53.608;9.958;2023-07-24T11:12:44;24.60;99.90
13856;DHT22;6998;53.608;9.958;2023-07-24T11:15:11;24.70;99.90
13856;DHT22;6998;53.608;9.958;2023-07-24T11:17:40;24.70;99.90
13856;DHT22;6998;53.608;9.958;2023-07-24T11:20:13;24.90;99.90
13856;DHT22;6998;53.608;9.958;2023-07-24T11:22:41;25.20;99.90
13856;DHT22;6998;53.608;9.958;2023-07-24T11:25:09;25.20;99.90
13856;DHT22;6998;53.608;9.958;2023-07-24T11:27:39;25.20;99.90
13856;DHT22;6998;53.608;9.958;2023-07-24T11:30:08;25.30;99.90
13856;DHT22;6998;53.608;9.958;2023-07-24T11:32:34;25.40;99.90
13856;DHT22;6998;53.608;9.958;2023-07-24T11:35:02;25.30;99.90
13856;DHT22;6998;53.608;9.958;2023-07-24T11:37:30;25.30;99.90
13856;DHT22;6998;53.608;9.958;2023-07-24T11:39:59;25.20;99.90
13856;DHT22;6998;53.608;9.958;2023-07-24T11:42:30;25.30;99.90
13856;DHT22;6998;53.608;9.958;2023-07-24T11:45:00;25.40;99.90
13856;DHT22;6998;53.608;9.958;2023-07-24T11:47:27;25.30;99.90
13856;DHT22;6998;53.608;9.958;2023-07-24T11:49:59;25.40;99.90
13856;DHT22;6998;53.608;9.958;2023-07-24T11:52:36;25.40;99.90
13856;DHT22;6998;53.608;9.958;2023-07-24T11:55:04;25.30;99.90
13856;DHT22;6998;53.608;9.958;2023-07-24T11:57:30;25.10;99.90
13856;DHT22;6998;53.608;9.958;2023-07-24T11:59:57;25.10;99.90
13856;DHT22;6998;53.608;9.958;2023-07-24T12:02:26;25.20;99.90
13856;DHT22;6998;53.608;9.958;2023-07-24T12:04:55;25.60;99.90
13856;DHT22;6998;53.608;9.958;2023-07-24T12:07:23;26.10;99.90
13856;DHT22;6998;53.608;9.958;2023-07-24T12:09:52;26.30;99.90
13856;DHT22;6998;53.608;9.958;2023-07-24T12:12:19;25.80;99.90
13856;DHT22;6998;53.608;9.958;2023-07-24T12:14:45;25.40;99.90
13856;DHT22;6998;53.608;9.958;2023-07-24T12:17:17;25.30;99.90
13856;DHT22;6998;53.608;9.958;2023-07-24T12:19:45;25.50;99.90
13856;DHT22;6998;53.608;9.958;2023-07-24T12:22:12;25.50;99.90
13856;DHT22;6998;53.608;9.958;2023-07-24T12:24:39;25.60;99.90
13856;DHT22;6998;53.608;9.958;2023-07-24T12:27:07;25.60;99.90
13856;DHT22;6998;53.608;9.958;2023-07-24T12:29:34;25.70;99.90
13856;DHT22;6998;53.608;9.958;2023-07-24T12:32:00;25.90;99.90
13856;DHT22;6998;53.608;9.958;2023-07-24T12:34:27;26.10;99.90
13856;DHT22;6998;53.608;9.958;2023-07-24T12:36:54;26.40;99.90
13856;DHT22;6998;53.608;9.958;2023-07-24T12:39:20;26.60;99.90
13856;DHT22;6998;53.608;9.958;2023-07-24T12:41:47;27.00;99.90
13856;DHT22;6998;53.608;9.958;2023-07-24T12:44:15;27.30;99.90
13856;DHT22;6998;53.608;9.958;2023-07-24T12:46:42;27.10;99.90
13856;DHT22;6998;53.608;9.958;2023-07-24T12:49:08;27.10;99.90
13856;DHT22;6998;53.608;9.958;2023-07-24T12:51:35;26.90;99.90
13856;DHT22;6998;53.608;9.958;2023-07-24T12:54:02;26.60;99.90
13856;DHT22;6998;53.608;9.958;2023-07-24T12:56:29;26.40;99.90
13856;DHT22;6998;53.608;9.958;2023-07-24T12:58:55;26.50;99.90
13856;DHT22;6998;53.608;9.958;2023-07-24T13:01:23;26.60;99.90
13856;DHT22;6998;53.608;9.958;2023-07-24T13:03:50;26.70;99.90
13856;DHT22;6998;53.608;9.958;2023-07-24T13:06:17;26.70;99.90
13856;DHT22;6998;53.608;9.958;2023-07-24T13:08:43;26.90;99.90
13856;DHT22;6998;53.608;9.958;2023-07-24T13:11:10;27.20;99.90
13856;DHT22;6998;53.608;9.958;2023-07-24T13:13:37;27.30;99.90
13856;DHT22;6998;53.608;9.958;2023-07-24T13:16:04;27.40;99.90
13856;DHT22;6998;53.608;9.958;2023-07-24T13:18:32;27.30;99.90
13856;DHT22;6998;53.608;9.958;2023-07-24T13:20:59;27.60;99.90
13856;DHT22;6998;53.608;9.958;2023-07-24T13:23:25;27.80;99.90
13856;DHT22;6998;53.608;9.958;2023-07-24T13:25:52;27.70;99.90
13856;DHT22;6998;53.608;9.958;2023-07-24T13:28:19;27.60;99.90
13856;DHT22;6998;53.608;9.958;2023-07-24T13:30:46;27.40;99.90
13856;DHT22;6998;53.608;9.958;2023-07-24T13:33:13;27.40;99.90
13856;DHT22;6998;53.608;9.958;2023-07-24T13:35:41;27.40;99.90
13856;DHT22;6998;53.608;9.958;2023-07-24T13:38:08;27.50;99.90
13856;DHT22;6998;53.608;9.958;2023-07-24T13:40:35;27.60;99.90
13856;DHT22;6998;53.608;9.958;2023-07-24T13:43:02;27.30;99.90
13856;DHT22;6998;53.608;9.958;2023-07-24T13:45:29;26.90;99.90
13856;DHT22;6998;53.608;9.958;2023-07-24T13:47:56;26.70;99.90
13856;DHT22;6998;53.608;9.958;2023-07-24T13:50:23;26.80;99.90
13856;DHT22;6998;53.608;9.958;2023-07-24T13:52:52;26.90;99.90
13856;DHT22;6998;53.608;9.958;2023-07-24T13:55:18;27.30;99.90
13856;DHT22;6998;53.608;9.958;2023-07-24T13:57:45;27.50;99.90
13856;DHT22;6998;53.608;9.958;2023-07-24T14:00:12;27.60;99.90
13856;DHT22;6998;53.608;9.958;2023-07-24T14:02:39;27.40;99.90
13856;DHT22;6998;53.608;9.958;2023-07-24T14:05:07;27.20;99.90
13856;DHT22;6998;53.608;9.958;2023-07-24T14:07:34;27.00;99.90
13856;DHT22;6998;53.608;9.958;2023-07-24T14:10:02;27.10;99.90
13856;DHT22;6998;53.608;9.958;2023-07-24T14:12:29;27.10;99.90
13856;DHT22;6998;53.608;9.958;2023-07-24T14:14:55;27.10;99.90
13856;DHT22;6998;53.608;9.958;2023-07-24T14:17:22;27.20;99.90
13856;DHT22;6998;53.608;9.958;2023-07-24T14:19:48;27.20;99.90
13856;DHT22;6998;53.608;9.958;2023-07-24T14:22:15;27.10;99.90
13856;DHT22;6998;53.608;9.958;2023-07-24T14:24:42;26.80;99.90
13856;DHT22;6998;53.608;9.958;2023-07-24T14:27:10;26.30;99.90
13856;DHT22;6998;53.608;9.958;2023-07-24T14:29:37;26.30;99.90
13856;DHT22;6998;53.608;9.958;2023-07-24T14:32:04;26.50;99.90
13856;DHT22;6998;53.608;9.958;2023-07-24T14:34:31;26.60;99.90
13856;DHT22;6998;53.608;9.958;2023-07-24T14:36:58;26.70;99.90
13856;DHT22;6998;53.608;9.958;2023-07-24T14:39:25;26.50;99.90
13856;DHT22;6998;53.608;9.958;2023-07-24T14:41:52;26.50;99.90
13856;DHT22;6998;53.608;9.958;2023-07-24T14:44:20;26.60;99.90
13856;DHT22;6998;53.608;9.958;2023-07-24T14:46:46;26.60;99.90
13856;DHT22;6998;53.608;9.958;2023-07-24T14:49:13;26.60;99.90
13856;DHT22;6998;53.608;9.958;2023-07-24T14:51:40;26.70;99.90
13856;DHT22;6998;53.608;9.958;2023-07-24T14:54:06;26.80;99.90
13856;DHT22;6998;53.608;9.958;2023-07-24T14:56:33;26.50;99.90
13856;DHT22;6998;53.608;9.958;2023-07-24T14:59:00;26.30;99.90
13856;DHT22;6998;53.608;9.958;2023-07-24T15:01:28;26.10;99.90
13856;DHT22;6998;53.608;9.958;2023-07-24T15:03:56;26.10;99.90
13856;DHT22;6998;53.608;9.958;2023-07-24T15:06:23;26.00;99.90
13856;DHT22;6998;53.608;9.958;2023-07-24T15:08:49;25.90;99.90
13856;DHT22;6998;53.608;9.958;2023-07-24T15:11:18;25.80;99.90
13856;DHT22;6998;53.608;9.958;2023-07-24T15:13:45;25.70;99.90
13856;DHT22;6998;53.608;9.958;2023-07-24T15:16:12;25.60;99.90
13856;DHT22;6998;53.608;9.958;2023-07-24T15:18:40;25.50;99.90
13856;DHT22;6998;53.608;9.958;2023-07-24T15:21:06;25.40;99.90
13856;DHT22;6998;53.608;9.958;2023-07-24T15:23:34;25.30;99.90
13856;DHT22;6998;53.608;9.958;2023-07-24T15:26:01;25.10;99.90
13856;DHT22;6998;53.608;9.958;2023-07-24T15:28:28;24.90;99.90
13856;DHT22;6998;53.608;9.958;2023-07-24T15:30:54;23.90;99.90
13856;DHT22;6998;53.608;9.958;2023-07-24T15:33:21;23.00;99.90
13856;DHT22;6998;53.608;9.958;2023-07-24T15:35:49;21.60;99.90
13856;DHT22;6998;53.608;9.958;2023-07-24T15:38:16;20.60;99.90
13856;DHT22;6998;53.608;9.958;2023-07-24T15:40:43;20.10;99.90
13856;DHT22;6998;53.608;9.958;2023-07-24T15:43:10;19.60;99.90
13856;DHT22;6998;53.608;9.958;2023-07-24T15:45:37;19.30;99.90